sensor_id;sensor_type;location;lat;lon;timestamp;pressure;altitude;pressure_sealevel;temperature;humidity
62895;BME280;49204;44.916;37.998;2022-12-29T00:01:12;102811.53;;;0.31;77.68
62895;BME280;49204;44.916;37.998;2022-12-29T00:03:40;102817.56;;;0.30;77.69
62895;BME280;49204;44.916;37.998;2022-12-29T00:06:09;102817.92;;;0.28;77.58
62895;BME280;49204;44.916;37.998;2022-12-29T00:08:38;102819.09;;;0.25;77.50
62895;BME280;49204;44.916;37.998;2022-12-29T00:11:18;102816.80;;;0.22;77.44
62895;BME280;49204;44.916;37.998;2022-12-29T00:13:47;102818.00;;;0.18;77.44
62895;BME280;49204;44.916;37.998;2022-12-29T00:16:34;102817.00;;;0.15;77.43
62895;BME280;49204;44.916;37.998;2022-12-29T00:19:04;102820.83;;;0.13;77.40
62895;BME280;49204;44.916;37.998;2022-12-29T00:21:33;102819.05;;;0.12;77.41
62895;BME280;49204;44.916;37.998;2022-12-29T00:24:21;102828.54;;;0.12;77.47
62895;BME280;49204;44.916;37.998;2022-12-29T00:29:50;102821.00;;;0.07;77.29
62895;BME280;49204;44.916;37.998;2022-12-29T00:32:37;102819.19;;;0.04;77.31
62895;BME280;49204;44.916;37.998;2022-12-29T00:35:37;102812.52;;;-0.01;77.33
62895;BME280;49204;44.916;37.998;2022-12-29T00:38:06;102825.83;;;-0.03;77.33
62895;BME280;49204;44.916;37.998;2022-12-29T00:40:55;102816.64;;;-0.06;77.34
62895;BME280;49204;44.916;37.998;2022-12-29T00:43:41;102812.23;;;-0.08;77.40
62895;BME280;49204;44.916;37.998;2022-12-29T00:46:27;102819.13;;;-0.09;77.34
62895;BME280;49204;44.916;37.998;2022-12-29T00:48:56;102819.07;;;-0.10;77.49
62895;BME280;49204;44.916;37.998;2022-12-29T00:51:43;102821.08;;;-0.14;77.52
62895;BME280;49204;44.916;37.998;2022-12-29T00:54:12;102822.77;;;-0.15;77.62
62895;BME280;49204;44.916;37.998;2022-12-29T00:56:41;102820.17;;;-0.15;77.60
62895;BME280;49204;44.916;37.998;2022-12-29T00:59:11;102821.44;;;-0.16;77.73
62895;BME280;49204;44.916;37.998;2022-12-29T01:01:40;102820.08;;;-0.18;77.71
62895;BME280;49204;44.916;37.998;2022-12-29T01:04:10;102814.83;;;-0.20;77.78
62895;BME280;49204;44.916;37.998;2022-12-29T01:06:39;102813.41;;;-0.23;77.72
62895;BME280;49204;44.916;37.998;2022-12-29T01:09:09;102812.95;;;-0.24;77.68
62895;BME280;49204;44.916;37.998;2022-12-29T01:11:56;102814.05;;;-0.28;77.58
62895;BME280;49204;44.916;37.998;2022-12-29T01:14:25;102815.64;;;-0.32;77.56
62895;BME280;49204;44.916;37.998;2022-12-29T01:16:55;102808.94;;;-0.38;77.64
62895;BME280;49204;44.916;37.998;2022-12-29T01:19:25;102806.28;;;-0.40;77.72
62895;BME280;49204;44.916;37.998;2022-12-29T01:21:56;102807.13;;;-0.41;77.82
62895;BME280;49204;44.916;37.998;2022-12-29T01:24:24;102803.11;;;-0.44;77.82
62895;BME280;49204;44.916;37.998;2022-12-29T01:26:53;102808.29;;;-0.44;77.86
62895;BME280;49204;44.916;37.998;2022-12-29T01:29:22;102804.20;;;-0.48;77.84
62895;BME280;49204;44.916;37.998;2022-12-29T01:31:51;102804.50;;;-0.52;77.87
62895;BME280;49204;44.916;37.998;2022-12-29T01:34:20;102806.98;;;-0.55;78.23
62895;BME280;49204;44.916;37.998;2022-12-29T01:36:49;102806.85;;;-0.58;78.52
62895;BME280;49204;44.916;37.998;2022-12-29T01:39:17;102803.19;;;-0.63;78.82
62895;BME280;49204;44.916;37.998;2022-12-29T01:41:46;102800.82;;;-0.68;78.81
62895;BME280;49204;44.916;37.998;2022-12-29T01:44:53;102802.02;;;-0.71;78.83
62895;BME280;49204;44.916;37.998;2022-12-29T01:47:37;102801.88;;;-0.74;78.79
62895;BME280;49204;44.916;37.998;2022-12-29T01:53:04;102793.98;;;-0.78;78.67
62895;BME280;49204;44.916;37.998;2022-12-29T01:55:37;102797.34;;;-0.80;78.55
62895;BME280;49204;44.916;37.998;2022-12-29T01:58:05;102802.80;;;-0.84;78.47
62895;BME280;49204;44.916;37.998;2022-12-29T02:00:34;102801.85;;;-0.86;78.42
62895;BME280;49204;44.916;37.998;2022-12-29T02:03:04;102797.80;;;-0.90;78.41
62895;BME280;49204;44.916;37.998;2022-12-29T02:05:47;102790.36;;;-0.92;78.44
62895;BME280;49204;44.916;37.998;2022-12-29T02:08:16;102796.44;;;-0.92;78.61
62895;BME280;49204;44.916;37.998;2022-12-29T02:10:45;102800.31;;;-0.92;78.92
62895;BME280;49204;44.916;37.998;2022-12-29T02:13:17;102799.83;;;-0.93;78.97
62895;BME280;49204;44.916;37.998;2022-12-29T02:16:01;102797.17;;;-0.94;78.94
62895;BME280;49204;44.916;37.998;2022-12-29T02:18:37;102794.13;;;-0.95;78.83
62895;BME280;49204;44.916;37.998;2022-12-29T02:27:01;102795.22;;;-1.00;78.75
62895;BME280;49204;44.916;37.998;2022-12-29T02:29:40;102799.59;;;-0.99;78.99
62895;BME280;49204;44.916;37.998;2022-12-29T02:35:20;102801.89;;;-1.05;78.67
62895;BME280;49204;44.916;37.998;2022-12-29T02:38:08;102803.08;;;-1.08;78.64
62895;BME280;49204;44.916;37.998;2022-12-29T02:40:46;102804.16;;;-1.13;78.59
62895;BME280;49204;44.916;37.998;2022-12-29T02:48:38;102810.66;;;-1.23;78.66
62895;BME280;49204;44.916;37.998;2022-12-29T02:51:25;102821.41;;;-1.23;78.65
62895;BME280;49204;44.916;37.998;2022-12-29T02:53:54;102816.10;;;-1.26;78.74
62895;BME280;49204;44.916;37.998;2022-12-29T02:56:41;102807.93;;;-1.26;78.62
62895;BME280;49204;44.916;37.998;2022-12-29T02:59:11;102809.50;;;-1.29;78.62
62895;BME280;49204;44.916;37.998;2022-12-29T03:02:07;102800.80;;;-1.31;78.64
62895;BME280;49204;44.916;37.998;2022-12-29T03:10:04;102802.16;;;-1.30;78.65
62895;BME280;49204;44.916;37.998;2022-12-29T03:12:45;102800.88;;;-1.30;78.62
62895;BME280;49204;44.916;37.998;2022-12-29T03:15:36;102809.73;;;-1.34;78.75
62895;BME280;49204;44.916;37.998;2022-12-29T03:18:30;102816.05;;;-1.38;78.65
62895;BME280;49204;44.916;37.998;2022-12-29T03:20:57;102809.86;;;-1.41;78.83
62895;BME280;49204;44.916;37.998;2022-12-29T03:23:26;102811.09;;;-1.43;78.69
62895;BME280;49204;44.916;37.998;2022-12-29T03:25:57;102815.58;;;-1.48;78.81
62895;BME280;49204;44.916;37.998;2022-12-29T03:28:30;102814.83;;;-1.56;78.92
62895;BME280;49204;44.916;37.998;2022-12-29T03:30:59;102819.66;;;-1.63;79.04
62895;BME280;49204;44.916;37.998;2022-12-29T03:33:30;102805.92;;;-1.72;79.02
62895;BME280;49204;44.916;37.998;2022-12-29T03:36:04;102810.14;;;-1.74;79.19
62895;BME280;49204;44.916;37.998;2022-12-29T03:39:02;102814.89;;;-1.73;79.54
62895;BME280;49204;44.916;37.998;2022-12-29T03:41:10;102815.80;;;-1.73;79.62
62895;BME280;49204;44.916;37.998;2022-12-29T03:43:40;102820.13;;;-1.72;79.54
62895;BME280;49204;44.916;37.998;2022-12-29T03:46:09;102819.78;;;-1.70;79.50
62895;BME280;49204;44.916;37.998;2022-12-29T03:48:39;102817.16;;;-1.71;79.70
62895;BME280;49204;44.916;37.998;2022-12-29T03:51:08;102824.91;;;-1.71;79.78
62895;BME280;49204;44.916;37.998;2022-12-29T03:53:37;102817.89;;;-1.74;79.60
62895;BME280;49204;44.916;37.998;2022-12-29T03:56:06;102822.30;;;-1.81;79.91
62895;BME280;49204;44.916;37.998;2022-12-29T03:58:35;102832.17;;;-1.82;80.24
62895;BME280;49204;44.916;37.998;2022-12-29T04:01:08;102829.24;;;-1.80;80.08
62895;BME280;49204;44.916;37.998;2022-12-29T04:03:37;102824.16;;;-1.79;80.03
62895;BME280;49204;44.916;37.998;2022-12-29T04:06:06;102825.63;;;-1.84;80.20
62895;BME280;49204;44.916;37.998;2022-12-29T04:08:49;102830.73;;;-1.85;80.43
62895;BME280;49204;44.916;37.998;2022-12-29T04:11:17;102831.75;;;-1.91;80.48
62895;BME280;49204;44.916;37.998;2022-12-29T04:13:46;102827.38;;;-1.92;80.41
62895;BME280;49204;44.916;37.998;2022-12-29T04:16:17;102835.05;;;-1.94;80.30
62895;BME280;49204;44.916;37.998;2022-12-29T04:18:45;102831.59;;;-1.95;80.17
62895;BME280;49204;44.916;37.998;2022-12-29T04:21:14;102832.02;;;-1.95;80.24
62895;BME280;49204;44.916;37.998;2022-12-29T04:23:43;102832.28;;;-1.99;80.60
62895;BME280;49204;44.916;37.998;2022-12-29T04:26:13;102830.49;;;-2.00;80.63
62895;BME280;49204;44.916;37.998;2022-12-29T04:28:58;102842.03;;;-2.01;80.73
62895;BME280;49204;44.916;37.998;2022-12-29T04:31:34;102833.75;;;-2.04;80.58
62895;BME280;49204;44.916;37.998;2022-12-29T04:34:03;102839.59;;;-2.08;80.58
62895;BME280;49204;44.916;37.998;2022-12-29T04:36:32;102839.94;;;-2.10;80.68
62895;BME280;49204;44.916;37.998;2022-12-29T04:39:02;102842.97;;;-2.09;80.63
62895;BME280;49204;44.916;37.998;2022-12-29T04:41:33;102847.34;;;-2.08;80.50
62895;BME280;49204;44.916;37.998;2022-12-29T04:44:02;102851.62;;;-2.08;80.38
62895;BME280;49204;44.916;37.998;2022-12-29T04:46:49;102852.01;;;-2.09;80.34
62895;BME280;49204;44.916;37.998;2022-12-29T04:49:19;102854.13;;;-2.10;80.25
62895;BME280;49204;44.916;37.998;2022-12-29T04:51:56;102860.25;;;-2.08;80.41
62895;BME280;49204;44.916;37.998;2022-12-29T04:54:26;102856.38;;;-2.08;80.59
62895;BME280;49204;44.916;37.998;2022-12-29T04:56:56;102867.30;;;-2.14;80.59
62895;BME280;49204;44.916;37.998;2022-12-29T04:59:24;102868.51;;;-2.15;80.74
62895;BME280;49204;44.916;37.998;2022-12-29T05:01:55;102874.89;;;-2.17;80.72
62895;BME280;49204;44.916;37.998;2022-12-29T05:04:24;102876.25;;;-2.15;80.66
62895;BME280;49204;44.916;37.998;2022-12-29T05:06:53;102877.21;;;-2.13;80.67
62895;BME280;49204;44.916;37.998;2022-12-29T05:09:22;102874.29;;;-2.11;80.62
62895;BME280;49204;44.916;37.998;2022-12-29T05:11:51;102881.31;;;-2.08;80.52
62895;BME280;49204;44.916;37.998;2022-12-29T05:14:20;102876.41;;;-2.12;80.58
62895;BME280;49204;44.916;37.998;2022-12-29T05:16:49;102878.91;;;-2.14;80.62
62895;BME280;49204;44.916;37.998;2022-12-29T05:19:18;102887.53;;;-2.13;80.61
62895;BME280;49204;44.916;37.998;2022-12-29T05:21:47;102889.44;;;-2.09;80.54
62895;BME280;49204;44.916;37.998;2022-12-29T05:24:16;102905.09;;;-2.06;80.48
62895;BME280;49204;44.916;37.998;2022-12-29T05:26:44;102899.61;;;-1.94;80.51
62895;BME280;49204;44.916;37.998;2022-12-29T05:29:30;102898.30;;;-1.66;80.49
62895;BME280;49204;44.916;37.998;2022-12-29T05:31:59;102899.31;;;-1.25;80.18
62895;BME280;49204;44.916;37.998;2022-12-29T05:34:30;102903.22;;;-0.85;79.90
62895;BME280;49204;44.916;37.998;2022-12-29T05:36:58;102904.78;;;-0.36;79.40
62895;BME280;49204;44.916;37.998;2022-12-29T05:39:28;102908.00;;;0.13;78.75
62895;BME280;49204;44.916;37.998;2022-12-29T05:41:59;102909.12;;;0.65;77.98
62895;BME280;49204;44.916;37.998;2022-12-29T05:44:41;102902.68;;;1.03;77.30
62895;BME280;49204;44.916;37.998;2022-12-29T05:47:24;102909.70;;;1.70;76.64
62895;BME280;49204;44.916;37.998;2022-12-29T05:49:54;102910.20;;;2.43;75.34
62895;BME280;49204;44.916;37.998;2022-12-29T05:52:41;102900.14;;;3.17;74.26
62895;BME280;49204;44.916;37.998;2022-12-29T05:55:09;102898.61;;;3.97;73.31
62895;BME280;49204;44.916;37.998;2022-12-29T05:57:40;102897.79;;;4.59;72.65
62895;BME280;49204;44.916;37.998;2022-12-29T06:00:11;102902.13;;;5.05;72.26
62895;BME280;49204;44.916;37.998;2022-12-29T06:02:43;102896.80;;;5.22;71.99
62895;BME280;49204;44.916;37.998;2022-12-29T06:05:13;102908.32;;;5.33;71.82
62895;BME280;49204;44.916;37.998;2022-12-29T06:07:42;102904.89;;;5.64;71.62
62895;BME280;49204;44.916;37.998;2022-12-29T06:10:13;102910.88;;;5.84;71.64
62895;BME280;49204;44.916;37.998;2022-12-29T06:12:47;102921.91;;;5.66;71.81
62895;BME280;49204;44.916;37.998;2022-12-29T06:15:16;102928.56;;;5.73;71.41
62895;BME280;49204;44.916;37.998;2022-12-29T06:17:46;102920.44;;;6.41;70.61
62895;BME280;49204;44.916;37.998;2022-12-29T06:20:15;102917.34;;;6.73;69.98
62895;BME280;49204;44.916;37.998;2022-12-29T06:22:44;102920.19;;;6.23;67.70
62895;BME280;49204;44.916;37.998;2022-12-29T06:25:14;102922.02;;;6.28;67.65
62895;BME280;49204;44.916;37.998;2022-12-29T06:27:44;102919.19;;;5.85;67.06
62895;BME280;49204;44.916;37.998;2022-12-29T06:30:13;102926.53;;;5.82;67.00
62895;BME280;49204;44.916;37.998;2022-12-29T06:32:44;102922.98;;;5.78;65.88
62895;BME280;49204;44.916;37.998;2022-12-29T06:35:13;102921.64;;;5.01;65.79
62895;BME280;49204;44.916;37.998;2022-12-29T06:37:46;102922.63;;;4.62;66.63
62895;BME280;49204;44.916;37.998;2022-12-29T06:40:15;102918.23;;;4.19;66.40
62895;BME280;49204;44.916;37.998;2022-12-29T06:42:51;102921.79;;;4.22;67.40
62895;BME280;49204;44.916;37.998;2022-12-29T06:45:31;102929.08;;;4.80;66.56
62895;BME280;49204;44.916;37.998;2022-12-29T06:48:00;102923.41;;;5.51;66.24
62895;BME280;49204;44.916;37.998;2022-12-29T06:50:28;102923.76;;;6.28;65.34
62895;BME280;49204;44.916;37.998;2022-12-29T06:52:57;102922.81;;;6.55;64.17
62895;BME280;49204;44.916;37.998;2022-12-29T06:55:25;102915.03;;;7.01;63.69
62895;BME280;49204;44.916;37.998;2022-12-29T06:57:57;102910.48;;;7.78;63.36
62895;BME280;49204;44.916;37.998;2022-12-29T07:00:26;102917.22;;;8.01;63.20
62895;BME280;49204;44.916;37.998;2022-12-29T07:02:56;102916.50;;;8.29;62.94
62895;BME280;49204;44.916;37.998;2022-12-29T07:05:27;102920.63;;;8.66;62.53
62895;BME280;49204;44.916;37.998;2022-12-29T07:07:58;102921.22;;;9.14;62.07
62895;BME280;49204;44.916;37.998;2022-12-29T07:10:27;102923.45;;;9.30;62.04
62895;BME280;49204;44.916;37.998;2022-12-29T07:12:56;102915.55;;;9.85;61.24
62895;BME280;49204;44.916;37.998;2022-12-29T07:15:24;102918.95;;;10.29;60.15
62895;BME280;49204;44.916;37.998;2022-12-29T07:17:53;102921.55;;;10.46;59.70
62895;BME280;49204;44.916;37.998;2022-12-29T07:20:21;102920.72;;;10.40;59.06
62895;BME280;49204;44.916;37.998;2022-12-29T07:22:52;102923.39;;;10.05;59.34
62895;BME280;49204;44.916;37.998;2022-12-29T07:25:20;102925.20;;;9.80;59.50
62895;BME280;49204;44.916;37.998;2022-12-29T07:27:49;102932.64;;;9.93;59.45
62895;BME280;49204;44.916;37.998;2022-12-29T07:30:18;102931.22;;;10.42;59.04
62895;BME280;49204;44.916;37.998;2022-12-29T07:32:46;102929.59;;;11.10;58.42
62895;BME280;49204;44.916;37.998;2022-12-29T07:35:15;102928.02;;;11.47;57.83
62895;BME280;49204;44.916;37.998;2022-12-29T07:37:44;102934.30;;;11.82;57.23
62895;BME280;49204;44.916;37.998;2022-12-29T07:40:13;102920.61;;;12.34;56.27
62895;BME280;49204;44.916;37.998;2022-12-29T07:42:41;102922.72;;;12.76;55.15
62895;BME280;49204;44.916;37.998;2022-12-29T07:45:10;102923.20;;;13.38;53.52
62895;BME280;49204;44.916;37.998;2022-12-29T07:47:50;102910.97;;;14.06;52.85
62895;BME280;49204;44.916;37.998;2022-12-29T07:50:19;102913.92;;;14.58;51.81
62895;BME280;49204;44.916;37.998;2022-12-29T07:52:48;102909.59;;;14.95;51.35
62895;BME280;49204;44.916;37.998;2022-12-29T07:55:19;102903.58;;;15.25;51.18
62895;BME280;49204;44.916;37.998;2022-12-29T07:57:48;102901.56;;;15.88;50.13
62895;BME280;49204;44.916;37.998;2022-12-29T08:00:17;102900.86;;;16.45;49.51
62895;BME280;49204;44.916;37.998;2022-12-29T08:02:46;102907.31;;;16.51;49.29
62895;BME280;49204;44.916;37.998;2022-12-29T08:05:15;102895.52;;;15.82;50.15
62895;BME280;49204;44.916;37.998;2022-12-29T08:07:48;102895.13;;;15.46;49.93
62895;BME280;49204;44.916;37.998;2022-12-29T08:10:17;102892.73;;;15.35;49.87
62895;BME280;49204;44.916;37.998;2022-12-29T08:12:46;102880.66;;;15.75;48.92
62895;BME280;49204;44.916;37.998;2022-12-29T08:15:14;102878.42;;;16.39;47.63
62895;BME280;49204;44.916;37.998;2022-12-29T08:17:43;102874.05;;;16.96;46.91
62895;BME280;49204;44.916;37.998;2022-12-29T08:20:12;102864.09;;;17.16;46.05
62895;BME280;49204;44.916;37.998;2022-12-29T08:22:40;102857.77;;;17.59;45.75
62895;BME280;49204;44.916;37.998;2022-12-29T08:25:15;102860.25;;;17.77;45.26
62895;BME280;49204;44.916;37.998;2022-12-29T08:27:41;102849.25;;;17.99;44.78
62895;BME280;49204;44.916;37.998;2022-12-29T08:30:11;102844.63;;;18.28;44.55
62895;BME280;49204;44.916;37.998;2022-12-29T08:32:40;102847.52;;;18.10;44.23
62895;BME280;49204;44.916;37.998;2022-12-29T08:35:09;102838.70;;;18.43;43.14
62895;BME280;49204;44.916;37.998;2022-12-29T08:37:37;102828.58;;;18.51;42.87
62895;BME280;49204;44.916;37.998;2022-12-29T08:40:07;102833.44;;;18.30;42.72
62895;BME280;49204;44.916;37.998;2022-12-29T08:42:36;102832.26;;;18.02;42.96
62895;BME280;49204;44.916;37.998;2022-12-29T08:45:05;102825.38;;;18.20;42.36
62895;BME280;49204;44.916;37.998;2022-12-29T08:47:35;102836.57;;;18.97;41.17
62895;BME280;49204;44.916;37.998;2022-12-29T08:50:05;102828.30;;;19.46;40.41
62895;BME280;49204;44.916;37.998;2022-12-29T08:52:34;102815.38;;;20.16;38.98
62895;BME280;49204;44.916;37.998;2022-12-29T08:55:03;102818.52;;;20.72;38.01
62895;BME280;49204;44.916;37.998;2022-12-29T08:57:32;102810.45;;;21.00;37.73
62895;BME280;49204;44.916;37.998;2022-12-29T09:00:13;102799.52;;;21.31;37.08
62895;BME280;49204;44.916;37.998;2022-12-29T09:02:42;102804.62;;;21.44;36.66
62895;BME280;49204;44.916;37.998;2022-12-29T09:05:11;102799.07;;;21.49;36.59
62895;BME280;49204;44.916;37.998;2022-12-29T09:07:40;102794.72;;;21.46;36.16
62895;BME280;49204;44.916;37.998;2022-12-29T09:10:08;102798.33;;;21.63;35.54
62895;BME280;49204;44.916;37.998;2022-12-29T09:12:37;102792.73;;;21.92;35.03
62895;BME280;49204;44.916;37.998;2022-12-29T09:15:07;102782.48;;;22.07;34.70
62895;BME280;49204;44.916;37.998;2022-12-29T09:17:36;102777.17;;;22.14;33.95
62895;BME280;49204;44.916;37.998;2022-12-29T09:20:16;102785.09;;;22.09;34.20
62895;BME280;49204;44.916;37.998;2022-12-29T09:22:46;102778.23;;;22.12;34.02
62895;BME280;49204;44.916;37.998;2022-12-29T09:25:15;102779.42;;;22.31;33.61
62895;BME280;49204;44.916;37.998;2022-12-29T09:27:44;102778.00;;;22.32;33.20
62895;BME280;49204;44.916;37.998;2022-12-29T09:30:14;102779.06;;;22.37;32.92
62895;BME280;49204;44.916;37.998;2022-12-29T09:32:43;102772.13;;;22.17;32.81
62895;BME280;49204;44.916;37.998;2022-12-29T09:35:13;102774.91;;;22.31;32.60
62895;BME280;49204;44.916;37.998;2022-12-29T09:37:42;102771.95;;;22.52;32.46
62895;BME280;49204;44.916;37.998;2022-12-29T09:40:18;102772.14;;;22.49;32.20
62895;BME280;49204;44.916;37.998;2022-12-29T09:43:05;102779.13;;;20.66;33.99
62895;BME280;49204;44.916;37.998;2022-12-29T09:45:47;102777.49;;;20.25;34.44
62895;BME280;49204;44.916;37.998;2022-12-29T09:48:18;102769.66;;;20.12;34.48
62895;BME280;49204;44.916;37.998;2022-12-29T09:50:52;102769.23;;;17.75;37.19
62895;BME280;49204;44.916;37.998;2022-12-29T09:53:26;102780.33;;;16.30;38.97
62895;BME280;49204;44.916;37.998;2022-12-29T09:55:58;102769.16;;;15.23;40.21
62895;BME280;49204;44.916;37.998;2022-12-29T10:04:12;102753.95;;;14.38;41.06
62895;BME280;49204;44.916;37.998;2022-12-29T10:06:53;102747.84;;;13.75;42.29
62895;BME280;49204;44.916;37.998;2022-12-29T10:09:47;102743.77;;;13.34;42.87
62895;BME280;49204;44.916;37.998;2022-12-29T10:12:30;102743.11;;;12.94;43.56
62895;BME280;49204;44.916;37.998;2022-12-29T10:15:26;102738.80;;;15.66;40.15
62895;BME280;49204;44.916;37.998;2022-12-29T10:20:25;102732.38;;;19.40;33.83
62895;BME280;49204;44.916;37.998;2022-12-29T10:25:41;102736.44;;;14.88;37.08
62895;BME280;49204;44.916;37.998;2022-12-29T10:30:54;102748.78;;;12.42;41.28
62895;BME280;49204;44.916;37.998;2022-12-29T10:33:36;102747.52;;;11.69;42.05
62895;BME280;49204;44.916;37.998;2022-12-29T10:36:15;102749.20;;;11.34;43.64
62895;BME280;49204;44.916;37.998;2022-12-29T10:38:48;102740.61;;;11.13;44.30
62895;BME280;49204;44.916;37.998;2022-12-29T10:41:17;102738.98;;;11.00;44.73
62895;BME280;49204;44.916;37.998;2022-12-29T10:43:50;102736.52;;;10.78;45.15
62895;BME280;49204;44.916;37.998;2022-12-29T10:46:25;102740.84;;;10.89;45.43
62895;BME280;49204;44.916;37.998;2022-12-29T10:48:53;102739.20;;;11.64;44.69
62895;BME280;49204;44.916;37.998;2022-12-29T10:51:24;102739.26;;;11.61;44.82
62895;BME280;49204;44.916;37.998;2022-12-29T10:54:03;102733.72;;;11.44;45.43
62895;BME280;49204;44.916;37.998;2022-12-29T11:04:59;102730.45;;;10.72;47.28
62895;BME280;49204;44.916;37.998;2022-12-29T11:07:27;102722.75;;;10.39;47.78
62895;BME280;49204;44.916;37.998;2022-12-29T11:10:35;102718.88;;;10.26;48.23
62895;BME280;49204;44.916;37.998;2022-12-29T11:13:18;102714.98;;;10.15;48.27
62895;BME280;49204;44.916;37.998;2022-12-29T11:15:48;102713.81;;;9.89;48.38
62895;BME280;49204;44.916;37.998;2022-12-29T11:18:24;102710.33;;;9.77;48.61
62895;BME280;49204;44.916;37.998;2022-12-29T11:20:59;102701.64;;;9.61;48.70
62895;BME280;49204;44.916;37.998;2022-12-29T11:23:40;102705.48;;;11.11;46.74
62895;BME280;49204;44.916;37.998;2022-12-29T11:26:29;102698.14;;;12.41;43.82
62895;BME280;49204;44.916;37.998;2022-12-29T11:29:25;102703.63;;;11.61;44.94
62895;BME280;49204;44.916;37.998;2022-12-29T11:31:56;102701.17;;;11.01;46.06
62895;BME280;49204;44.916;37.998;2022-12-29T11:39:57;102702.12;;;9.50;47.73
62895;BME280;49204;44.916;37.998;2022-12-29T11:42:35;102704.37;;;9.24;48.22
62895;BME280;49204;44.916;37.998;2022-12-29T11:47:52;102717.98;;;9.02;48.55
62895;BME280;49204;44.916;37.998;2022-12-29T11:50:27;102708.80;;;8.95;48.83
62895;BME280;49204;44.916;37.998;2022-12-29T11:53:02;102707.48;;;8.93;48.93
62895;BME280;49204;44.916;37.998;2022-12-29T11:55:31;102709.67;;;8.97;49.06
62895;BME280;49204;44.916;37.998;2022-12-29T11:58:02;102718.43;;;9.02;49.06
62895;BME280;49204;44.916;37.998;2022-12-29T12:00:34;102715.78;;;9.05;48.93
62895;BME280;49204;44.916;37.998;2022-12-29T12:03:17;102717.52;;;9.09;48.83
62895;BME280;49204;44.916;37.998;2022-12-29T12:05:56;102727.16;;;9.07;49.00
62895;BME280;49204;44.916;37.998;2022-12-29T12:08:28;102731.55;;;9.05;48.88
62895;BME280;49204;44.916;37.998;2022-12-29T12:11:47;102733.31;;;9.06;48.73
62895;BME280;49204;44.916;37.998;2022-12-29T12:16:54;102721.46;;;9.11;48.54
62895;BME280;49204;44.916;37.998;2022-12-29T12:21:59;102714.03;;;10.27;46.68
62895;BME280;49204;44.916;37.998;2022-12-29T12:24:36;102715.94;;;11.20;44.66
62895;BME280;49204;44.916;37.998;2022-12-29T12:29:54;102722.95;;;10.74;44.34
62895;BME280;49204;44.916;37.998;2022-12-29T12:33:14;102721.16;;;10.09;45.52
62895;BME280;49204;44.916;37.998;2022-12-29T12:34:57;102720.05;;;9.57;46.17
62895;BME280;49204;44.916;37.998;2022-12-29T12:45:49;102735.88;;;8.41;48.36
62895;BME280;49204;44.916;37.998;2022-12-29T13:05:19;102754.09;;;7.98;49.75
62895;BME280;49204;44.916;37.998;2022-12-29T13:08:06;102751.95;;;8.02;49.84
62895;BME280;49204;44.916;37.998;2022-12-29T13:13:22;102755.42;;;8.01;50.02
62895;BME280;49204;44.916;37.998;2022-12-29T13:15:52;102755.86;;;8.04;50.09
62895;BME280;49204;44.916;37.998;2022-12-29T13:23:55;102754.89;;;7.82;50.56
62895;BME280;49204;44.916;37.998;2022-12-29T13:26:44;102754.40;;;7.68;50.76
62895;BME280;49204;44.916;37.998;2022-12-29T13:31:33;102745.09;;;7.47;51.11
62895;BME280;49204;44.916;37.998;2022-12-29T13:36:54;102736.72;;;7.33;51.35
62895;BME280;49204;44.916;37.998;2022-12-29T13:39:30;102744.09;;;7.23;51.54
62895;BME280;49204;44.916;37.998;2022-12-29T13:41:58;102743.14;;;7.12;51.53
62895;BME280;49204;44.916;37.998;2022-12-29T13:44:33;102738.65;;;6.99;51.83
62895;BME280;49204;44.916;37.998;2022-12-29T13:47:06;102741.66;;;6.90;52.06
62895;BME280;49204;44.916;37.998;2022-12-29T13:49:33;102740.28;;;6.83;52.18
62895;BME280;49204;44.916;37.998;2022-12-29T13:52:12;102740.19;;;6.75;52.27
62895;BME280;49204;44.916;37.998;2022-12-29T13:58:00;102729.17;;;6.62;52.49
62895;BME280;49204;44.916;37.998;2022-12-29T14:00:31;102741.73;;;6.51;52.54
62895;BME280;49204;44.916;37.998;2022-12-29T14:03:11;102738.57;;;6.41;52.72
62895;BME280;49204;44.916;37.998;2022-12-29T14:05:33;102739.78;;;6.32;52.91
62895;BME280;49204;44.916;37.998;2022-12-29T14:08:04;102744.50;;;6.25;52.92
62895;BME280;49204;44.916;37.998;2022-12-29T14:10:36;102738.71;;;6.13;53.15
62895;BME280;49204;44.916;37.998;2022-12-29T14:15:47;102745.14;;;6.04;53.41
62895;BME280;49204;44.916;37.998;2022-12-29T14:18:23;102749.84;;;5.96;53.60
62895;BME280;49204;44.916;37.998;2022-12-29T14:23:40;102754.88;;;5.84;53.82
62895;BME280;49204;44.916;37.998;2022-12-29T14:26:18;102751.75;;;5.78;53.92
62895;BME280;49204;44.916;37.998;2022-12-29T14:28:48;102752.53;;;5.71;54.00
62895;BME280;49204;44.916;37.998;2022-12-29T14:36:53;102753.99;;;5.51;54.47
62895;BME280;49204;44.916;37.998;2022-12-29T14:39:40;102756.50;;;5.43;54.67
62895;BME280;49204;44.916;37.998;2022-12-29T14:42:14;102757.31;;;5.39;54.74
62895;BME280;49204;44.916;37.998;2022-12-29T14:44:58;102760.34;;;5.37;54.83
62895;BME280;49204;44.916;37.998;2022-12-29T14:47:33;102754.19;;;5.33;54.87
62895;BME280;49204;44.916;37.998;2022-12-29T14:50:16;102751.61;;;5.35;54.96
62895;BME280;49204;44.916;37.998;2022-12-29T14:52:54;102748.56;;;5.35;55.05
62895;BME280;49204;44.916;37.998;2022-12-29T14:58:22;102746.35;;;5.33;54.95
62895;BME280;49204;44.916;37.998;2022-12-29T15:00:50;102740.58;;;5.26;55.06
62895;BME280;49204;44.916;37.998;2022-12-29T15:06:08;102749.03;;;5.10;55.29
62895;BME280;49204;44.916;37.998;2022-12-29T15:08:58;102750.72;;;5.06;55.36
62895;BME280;49204;44.916;37.998;2022-12-29T15:11:24;102761.09;;;5.03;55.49
62895;BME280;49204;44.916;37.998;2022-12-29T15:13:53;102761.13;;;5.05;55.37
62895;BME280;49204;44.916;37.998;2022-12-29T15:16:33;102766.81;;;5.06;55.31